sensor_id;sensor_type;location;lat;lon;timestamp;pressure;altitude;pressure_sealevel;temperature;humidity
35806;BME280;21925;44.608;11.580;2022-07-29T00:00:06;101369.59;;;25.71;85.93
35806;BME280;21925;44.608;11.580;2022-07-29T00:02:32;101371.78;;;25.64;86.70
35806;BME280;21925;44.608;11.580;2022-07-29T00:04:58;101372.88;;;25.50;86.22
35806;BME280;21925;44.608;11.580;2022-07-29T00:07:24;101365.81;;;25.42;85.11
35806;BME280;21925;44.608;11.580;2022-07-29T00:09:50;101371.69;;;25.28;85.59
35806;BME280;21925;44.608;11.580;2022-07-29T00:12:15;101377.22;;;25.12;82.82
35806;BME280;21925;44.608;11.580;2022-07-29T00:14:41;101381.19;;;24.92;84.45
35806;BME280;21925;44.608;11.580;2022-07-29T00:17:06;101396.66;;;24.81;90.12
35806;BME280;21925;44.608;11.580;2022-07-29T00:19:32;101391.28;;;24.67;94.00
35806;BME280;21925;44.608;11.580;2022-07-29T00:22:00;101400.44;;;24.71;90.19
35806;BME280;21925;44.608;11.580;2022-07-29T00:24:25;101391.78;;;24.62;93.25
35806;BME280;21925;44.608;11.580;2022-07-29T00:26:51;101401.66;;;24.70;94.53
35806;BME280;21925;44.608;11.580;2022-07-29T00:29:17;101401.41;;;24.61;94.95
35806;BME280;21925;44.608;11.580;2022-07-29T00:31:43;101409.31;;;24.43;92.99
35806;BME280;21925;44.608;11.580;2022-07-29T00:34:08;101414.56;;;24.37;93.36
35806;BME280;21925;44.608;11.580;2022-07-29T00:36:54;101414.38;;;24.25;95.48
35806;BME280;21925;44.608;11.580;2022-07-29T00:39:19;101425.31;;;24.46;94.52
35806;BME280;21925;44.608;11.580;2022-07-29T00:41:45;101419.72;;;24.42;94.85
35806;BME280;21925;44.608;11.580;2022-07-29T00:44:10;101416.91;;;24.42;96.72
35806;BME280;21925;44.608;11.580;2022-07-29T00:46:36;101411.84;;;24.34;96.36
35806;BME280;21925;44.608;11.580;2022-07-29T00:49:02;101414.09;;;24.46;96.59
35806;BME280;21925;44.608;11.580;2022-07-29T00:51:27;101409.25;;;24.46;96.92
35806;BME280;21925;44.608;11.580;2022-07-29T00:53:53;101405.31;;;24.67;96.25
35806;BME280;21925;44.608;11.580;2022-07-29T00:56:19;101416.47;;;24.70;96.39
35806;BME280;21925;44.608;11.580;2022-07-29T00:58:46;101410.63;;;24.35;100.00
35806;BME280;21925;44.608;11.580;2022-07-29T01:01:13;101415.91;;;24.29;100.00
35806;BME280;21925;44.608;11.580;2022-07-29T01:03:39;101425.63;;;24.21;100.00
35806;BME280;21925;44.608;11.580;2022-07-29T01:06:04;101420.91;;;24.15;100.00
35806;BME280;21925;44.608;11.580;2022-07-29T01:08:31;101420.91;;;24.15;100.00
35806;BME280;21925;44.608;11.580;2022-07-29T01:10:58;101410.84;;;24.21;100.00
35806;BME280;21925;44.608;11.580;2022-07-29T01:13:25;101403.53;;;24.27;100.00
35806;BME280;21925;44.608;11.580;2022-07-29T01:15:56;101391.88;;;24.28;100.00
35806;BME280;21925;44.608;11.580;2022-07-29T01:18:44;101407.94;;;24.28;100.00
35806;BME280;21925;44.608;11.580;2022-07-29T01:22:09;101400.00;;;24.23;100.00
35806;BME280;21925;44.608;11.580;2022-07-29T01:30:22;101377.72;;;24.39;100.00
35806;BME280;21925;44.608;11.580;2022-07-29T01:32:54;101387.66;;;24.70;100.00
35806;BME280;21925;44.608;11.580;2022-07-29T01:35:25;101380.56;;;24.85;99.22
35806;BME280;21925;44.608;11.580;2022-07-29T01:42:52;101367.88;;;24.77;98.66
35806;BME280;21925;44.608;11.580;2022-07-29T01:45:26;101365.38;;;24.82;97.88
35806;BME280;21925;44.608;11.580;2022-07-29T01:48:00;101375.72;;;24.85;96.82
35806;BME280;21925;44.608;11.580;2022-07-29T01:50:33;101371.91;;;24.76;96.39
35806;BME280;21925;44.608;11.580;2022-07-29T01:53:02;101375.72;;;24.85;97.67
35806;BME280;21925;44.608;11.580;2022-07-29T01:55:32;101371.53;;;24.74;99.70
35806;BME280;21925;44.608;11.580;2022-07-29T01:58:00;101361.81;;;24.78;99.23
35806;BME280;21925;44.608;11.580;2022-07-29T02:00:30;101364.94;;;24.84;98.22
35806;BME280;21925;44.608;11.580;2022-07-29T02:02:59;101362.97;;;24.81;97.48
35806;BME280;21925;44.608;11.580;2022-07-29T02:05:27;101365.63;;;24.68;99.85
35806;BME280;21925;44.608;11.580;2022-07-29T02:07:55;101363.66;;;24.42;100.00
35806;BME280;21925;44.608;11.580;2022-07-29T02:10:23;101377.06;;;24.05;100.00
35806;BME280;21925;44.608;11.580;2022-07-29T02:12:51;101378.59;;;24.10;100.00
35806;BME280;21925;44.608;11.580;2022-07-29T02:15:19;101384.56;;;24.38;97.81
35806;BME280;21925;44.608;11.580;2022-07-29T02:18:09;101382.03;;;24.47;98.55
35806;BME280;21925;44.608;11.580;2022-07-29T02:20:37;101375.28;;;24.41;99.24
35806;BME280;21925;44.608;11.580;2022-07-29T02:23:05;101370.53;;;24.38;99.02
35806;BME280;21925;44.608;11.580;2022-07-29T02:25:33;101374.16;;;24.12;100.00
35806;BME280;21925;44.608;11.580;2022-07-29T02:27:59;101376.19;;;24.08;100.00
35806;BME280;21925;44.608;11.580;2022-07-29T02:30:27;101367.09;;;24.27;100.00
35806;BME280;21925;44.608;11.580;2022-07-29T02:32:54;101361.75;;;24.36;99.81
35806;BME280;21925;44.608;11.580;2022-07-29T02:35:21;101378.34;;;24.50;98.84
35806;BME280;21925;44.608;11.580;2022-07-29T02:37:48;101380.44;;;24.46;100.00
35806;BME280;21925;44.608;11.580;2022-07-29T02:40:38;101374.78;;;24.49;97.20
35806;BME280;21925;44.608;11.580;2022-07-29T02:43:06;101375.69;;;24.43;97.68
35806;BME280;21925;44.608;11.580;2022-07-29T02:45:33;101377.47;;;24.30;100.00
35806;BME280;21925;44.608;11.580;2022-07-29T02:48:05;101378.00;;;23.95;100.00
35806;BME280;21925;44.608;11.580;2022-07-29T02:50:49;101387.47;;;24.05;100.00
35806;BME280;21925;44.608;11.580;2022-07-29T02:53:18;101378.38;;;24.23;94.52
35806;BME280;21925;44.608;11.580;2022-07-29T02:55:50;101385.56;;;24.24;96.79
35806;BME280;21925;44.608;11.580;2022-07-29T02:58:32;101372.59;;;24.34;97.76
35806;BME280;21925;44.608;11.580;2022-07-29T03:01:02;101380.34;;;24.26;94.25
35806;BME280;21925;44.608;11.580;2022-07-29T03:03:33;101383.03;;;24.33;97.00
35806;BME280;21925;44.608;11.580;2022-07-29T03:06:01;101371.81;;;24.33;94.90
35806;BME280;21925;44.608;11.580;2022-07-29T03:08:28;101363.41;;;24.33;95.08
35806;BME280;21925;44.608;11.580;2022-07-29T03:10:55;101363.34;;;24.37;94.48
35806;BME280;21925;44.608;11.580;2022-07-29T03:13:21;101366.78;;;24.48;92.23
35806;BME280;21925;44.608;11.580;2022-07-29T03:15:47;101364.84;;;24.45;91.55
35806;BME280;21925;44.608;11.580;2022-07-29T03:18:13;101362.34;;;24.50;93.16
35806;BME280;21925;44.608;11.580;2022-07-29T03:20:39;101359.94;;;24.49;90.39
35806;BME280;21925;44.608;11.580;2022-07-29T03:23:06;101373.84;;;24.56;89.95
35806;BME280;21925;44.608;11.580;2022-07-29T03:25:31;101377.16;;;24.51;90.39
35806;BME280;21925;44.608;11.580;2022-07-29T03:27:57;101366.91;;;24.64;89.32
35806;BME280;21925;44.608;11.580;2022-07-29T03:30:23;101355.56;;;24.48;89.80
35806;BME280;21925;44.608;11.580;2022-07-29T03:32:49;101366.78;;;24.48;93.50
35806;BME280;21925;44.608;11.580;2022-07-29T03:35:15;101353.28;;;24.39;93.26
35806;BME280;21925;44.608;11.580;2022-07-29T03:37:44;101355.78;;;24.34;91.32
35806;BME280;21925;44.608;11.580;2022-07-29T03:40:14;101356.88;;;24.40;91.05
35806;BME280;21925;44.608;11.580;2022-07-29T03:42:42;101348.41;;;24.43;91.60
35806;BME280;21925;44.608;11.580;2022-07-29T03:45:11;101368.41;;;24.45;90.58
35806;BME280;21925;44.608;11.580;2022-07-29T03:47:42;101360.91;;;24.39;88.82
35806;BME280;21925;44.608;11.580;2022-07-29T03:50:10;101370.09;;;24.39;91.09
35806;BME280;21925;44.608;11.580;2022-07-29T03:52:37;101359.53;;;24.24;95.91
35806;BME280;21925;44.608;11.580;2022-07-29T03:55:03;101368.06;;;24.17;96.83
35806;BME280;21925;44.608;11.580;2022-07-29T03:57:30;101359.59;;;23.94;99.23
35806;BME280;21925;44.608;11.580;2022-07-29T03:59:57;101364.28;;;24.27;94.46
35806;BME280;21925;44.608;11.580;2022-07-29T04:02:23;101373.53;;;24.24;93.84
35806;BME280;21925;44.608;11.580;2022-07-29T04:04:49;101360.59;;;24.07;97.00
35806;BME280;21925;44.608;11.580;2022-07-29T04:07:15;101369.44;;;24.06;96.53
35806;BME280;21925;44.608;11.580;2022-07-29T04:09:41;101382.50;;;23.89;96.36
35806;BME280;21925;44.608;11.580;2022-07-29T04:12:07;101377.44;;;23.77;97.98
35806;BME280;21925;44.608;11.580;2022-07-29T04:14:33;101368.22;;;23.47;99.83
35806;BME280;21925;44.608;11.580;2022-07-29T04:17:00;101398.31;;;23.39;100.00
35806;BME280;21925;44.608;11.580;2022-07-29T04:19:26;101401.69;;;23.24;100.00
35806;BME280;21925;44.608;11.580;2022-07-29T04:21:52;101401.34;;;23.19;100.00
35806;BME280;21925;44.608;11.580;2022-07-29T04:24:17;101397.63;;;23.29;100.00
35806;BME280;21925;44.608;11.580;2022-07-29T04:26:45;101386.22;;;23.49;100.00
35806;BME280;21925;44.608;11.580;2022-07-29T04:29:11;101403.06;;;23.42;100.00
35806;BME280;21925;44.608;11.580;2022-07-29T04:31:37;101408.34;;;23.37;100.00
35806;BME280;21925;44.608;11.580;2022-07-29T04:34:03;101408.84;;;23.29;100.00
35806;BME280;21925;44.608;11.580;2022-07-29T04:36:29;101407.63;;;23.30;100.00
35806;BME280;21925;44.608;11.580;2022-07-29T04:38:54;101402.03;;;23.30;100.00
35806;BME280;21925;44.608;11.580;2022-07-29T04:41:20;101420.09;;;23.22;100.00
35806;BME280;21925;44.608;11.580;2022-07-29T04:43:45;101411.63;;;23.29;100.00
35806;BME280;21925;44.608;11.580;2022-07-29T04:46:11;101420.41;;;23.31;100.00
35806;BME280;21925;44.608;11.580;2022-07-29T04:48:36;101422.66;;;23.42;100.00
35806;BME280;21925;44.608;11.580;2022-07-29T04:51:02;101419.06;;;23.42;100.00
35806;BME280;21925;44.608;11.580;2022-07-29T04:53:28;101424.94;;;23.54;100.00
35806;BME280;21925;44.608;11.580;2022-07-29T04:55:53;101430.91;;;23.56;100.00
35806;BME280;21925;44.608;11.580;2022-07-29T04:58:19;101428.06;;;23.60;100.00
35806;BME280;21925;44.608;11.580;2022-07-29T05:00:45;101420.91;;;23.55;100.00
35806;BME280;21925;44.608;11.580;2022-07-29T05:03:11;101422.41;;;23.63;100.00
35806;BME280;21925;44.608;11.580;2022-07-29T05:05:36;101424.63;;;23.82;100.00
35806;BME280;21925;44.608;11.580;2022-07-29T05:08:02;101425.41;;;23.83;100.00
35806;BME280;21925;44.608;11.580;2022-07-29T05:10:28;101430.47;;;23.91;100.00
35806;BME280;21925;44.608;11.580;2022-07-29T05:12:54;101441.50;;;24.05;100.00
35806;BME280;21925;44.608;11.580;2022-07-29T05:15:19;101433.19;;;23.98;99.29
35806;BME280;21925;44.608;11.580;2022-07-29T05:17:45;101430.41;;;23.98;98.00
35806;BME280;21925;44.608;11.580;2022-07-29T05:20:10;101446.50;;;24.17;98.44
35806;BME280;21925;44.608;11.580;2022-07-29T05:22:36;101455.41;;;24.12;97.92
35806;BME280;21925;44.608;11.580;2022-07-29T05:25:02;101454.41;;;24.25;96.45
35806;BME280;21925;44.608;11.580;2022-07-29T05:27:28;101452.56;;;24.42;95.69
35806;BME280;21925;44.608;11.580;2022-07-29T05:29:53;101451.75;;;24.45;94.90
35806;BME280;21925;44.608;11.580;2022-07-29T05:32:19;101456.50;;;24.48;94.73
35806;BME280;21925;44.608;11.580;2022-07-29T05:34:44;101457.63;;;24.54;94.01
35806;BME280;21925;44.608;11.580;2022-07-29T05:37:10;101465.75;;;24.71;93.35
35806;BME280;21925;44.608;11.580;2022-07-29T05:39:39;101454.69;;;24.61;92.38
35806;BME280;21925;44.608;11.580;2022-07-29T05:42:08;101454.16;;;24.69;92.05
35806;BME280;21925;44.608;11.580;2022-07-29T05:44:38;101454.00;;;24.53;90.68
35806;BME280;21925;44.608;11.580;2022-07-29T05:47:05;101458.97;;;24.69;91.12
35806;BME280;21925;44.608;11.580;2022-07-29T05:49:32;101463.25;;;24.77;90.00
35806;BME280;21925;44.608;11.580;2022-07-29T05:51:58;101449.16;;;24.80;89.65
35806;BME280;21925;44.608;11.580;2022-07-29T05:54:24;101454.13;;;24.96;89.40
35806;BME280;21925;44.608;11.580;2022-07-29T05:56:50;101453.50;;;25.07;88.06
35806;BME280;21925;44.608;11.580;2022-07-29T05:59:15;101457.50;;;25.29;87.34
35806;BME280;21925;44.608;11.580;2022-07-29T06:01:41;101457.03;;;25.34;85.65
35806;BME280;21925;44.608;11.580;2022-07-29T06:04:06;101454.94;;;25.38;85.04
35806;BME280;21925;44.608;11.580;2022-07-29T06:06:33;101452.63;;;25.33;85.59
35806;BME280;21925;44.608;11.580;2022-07-29T06:09:00;101463.59;;;25.47;84.95
35806;BME280;21925;44.608;11.580;2022-07-29T06:11:26;101455.75;;;25.58;85.57
35806;BME280;21925;44.608;11.580;2022-07-29T06:13:51;101454.53;;;25.59;84.96
35806;BME280;21925;44.608;11.580;2022-07-29T06:16:17;101471.88;;;25.74;83.79
35806;BME280;21925;44.608;11.580;2022-07-29T06:18:42;101474.22;;;25.79;83.78
35806;BME280;21925;44.608;11.580;2022-07-29T06:21:09;101472.84;;;25.86;82.50
35806;BME280;21925;44.608;11.580;2022-07-29T06:23:38;101475.25;;;26.23;81.57
35806;BME280;21925;44.608;11.580;2022-07-29T06:26:04;101486.66;;;26.16;81.40
35806;BME280;21925;44.608;11.580;2022-07-29T06:28:31;101483.25;;;26.25;80.92
35806;BME280;21925;44.608;11.580;2022-07-29T06:30:56;101489.72;;;26.41;80.21
35806;BME280;21925;44.608;11.580;2022-07-29T06:33:22;101481.22;;;26.61;79.42
35806;BME280;21925;44.608;11.580;2022-07-29T06:35:47;101489.75;;;26.57;78.07
35806;BME280;21925;44.608;11.580;2022-07-29T06:38:14;101490.50;;;26.77;77.15
35806;BME280;21925;44.608;11.580;2022-07-29T06:40:44;101487.41;;;26.87;76.29
35806;BME280;21925;44.608;11.580;2022-07-29T06:43:39;101484.97;;;27.21;74.95
35806;BME280;21925;44.608;11.580;2022-07-29T06:46:12;101481.22;;;27.24;74.76
35806;BME280;21925;44.608;11.580;2022-07-29T06:48:39;101476.31;;;27.28;74.15
35806;BME280;21925;44.608;11.580;2022-07-29T06:51:05;101474.44;;;27.38;73.59
35806;BME280;21925;44.608;11.580;2022-07-29T06:53:32;101469.00;;;27.59;73.31
35806;BME280;21925;44.608;11.580;2022-07-29T06:55:59;101484.56;;;27.79;71.71
35806;BME280;21925;44.608;11.580;2022-07-29T06:58:29;101478.03;;;27.82;71.84
35806;BME280;21925;44.608;11.580;2022-07-29T07:01:01;101488.47;;;28.10;70.09
35806;BME280;21925;44.608;11.580;2022-07-29T07:03:27;101476.88;;;28.21;69.91
35806;BME280;21925;44.608;11.580;2022-07-29T07:05:53;101491.81;;;28.33;69.96
35806;BME280;21925;44.608;11.580;2022-07-29T07:08:19;101487.66;;;28.63;69.52
35806;BME280;21925;44.608;11.580;2022-07-29T07:10:46;101488.31;;;28.54;68.85
35806;BME280;21925;44.608;11.580;2022-07-29T07:13:12;101488.19;;;28.70;67.94
35806;BME280;21925;44.608;11.580;2022-07-29T07:15:38;101485.94;;;28.90;67.51
35806;BME280;21925;44.608;11.580;2022-07-29T07:18:04;101488.50;;;29.10;67.11
35806;BME280;21925;44.608;11.580;2022-07-29T07:20:32;101492.63;;;29.30;66.80
35806;BME280;21925;44.608;11.580;2022-07-29T07:22:57;101481.28;;;29.55;66.67
35806;BME280;21925;44.608;11.580;2022-07-29T07:25:23;101481.16;;;29.80;65.18
35806;BME280;21925;44.608;11.580;2022-07-29T07:27:49;101496.72;;;29.63;64.59
35806;BME280;21925;44.608;11.580;2022-07-29T07:30:14;101500.88;;;29.71;65.16
35806;BME280;21925;44.608;11.580;2022-07-29T07:32:40;101500.69;;;29.87;65.11
35806;BME280;21925;44.608;11.580;2022-07-29T07:35:07;101493.69;;;29.57;64.67
35806;BME280;21925;44.608;11.580;2022-07-29T07:37:34;101496.53;;;29.79;64.82
35806;BME280;21925;44.608;11.580;2022-07-29T07:40:00;101493.94;;;30.36;64.28
35806;BME280;21925;44.608;11.580;2022-07-29T07:42:26;101491.75;;;30.70;62.34
35806;BME280;21925;44.608;11.580;2022-07-29T07:44:52;101489.97;;;31.03;62.12
35806;BME280;21925;44.608;11.580;2022-07-29T07:47:18;101492.41;;;30.74;62.06
35806;BME280;21925;44.608;11.580;2022-07-29T07:49:48;101492.16;;;30.99;61.86
35806;BME280;21925;44.608;11.580;2022-07-29T07:52:15;101485.31;;;31.36;61.02
35806;BME280;21925;44.608;11.580;2022-07-29T07:54:41;101482.31;;;31.48;59.60
35806;BME280;21925;44.608;11.580;2022-07-29T07:57:08;101473.97;;;31.36;60.89
35806;BME280;21925;44.608;11.580;2022-07-29T07:59:33;101474.00;;;31.71;60.06
35806;BME280;21925;44.608;11.580;2022-07-29T08:01:59;101475.09;;;31.83;60.21
35806;BME280;21925;44.608;11.580;2022-07-29T08:04:26;101476.78;;;32.07;59.16
35806;BME280;21925;44.608;11.580;2022-07-29T08:06:52;101479.94;;;32.18;59.04
35806;BME280;21925;44.608;11.580;2022-07-29T08:09:20;101482.31;;;32.11;58.26
35806;BME280;21925;44.608;11.580;2022-07-29T08:11:46;101472.06;;;32.22;59.14
35806;BME280;21925;44.608;11.580;2022-07-29T08:14:11;101479.13;;;32.27;58.90
35806;BME280;21925;44.608;11.580;2022-07-29T08:16:42;101480.91;;;33.21;58.35
35806;BME280;21925;44.608;11.580;2022-07-29T08:19:08;101484.59;;;33.04;58.17
35806;BME280;21925;44.608;11.580;2022-07-29T08:21:34;101470.47;;;32.95;58.54
35806;BME280;21925;44.608;11.580;2022-07-29T08:24:00;101478.25;;;32.53;58.65
35806;BME280;21925;44.608;11.580;2022-07-29T08:26:45;101470.66;;;32.91;58.91
35806;BME280;21925;44.608;11.580;2022-07-29T08:29:11;101476.50;;;32.88;57.91
35806;BME280;21925;44.608;11.580;2022-07-29T08:31:37;101474.41;;;32.97;58.67
35806;BME280;21925;44.608;11.580;2022-07-29T08:34:03;101474.34;;;33.29;57.09
35806;BME280;21925;44.608;11.580;2022-07-29T08:36:29;101472.72;;;33.90;58.57
35806;BME280;21925;44.608;11.580;2022-07-29T08:38:55;101474.16;;;34.09;55.93
35806;BME280;21925;44.608;11.580;2022-07-29T08:41:21;101470.38;;;33.74;56.55
35806;BME280;21925;44.608;11.580;2022-07-29T08:43:48;101471.16;;;33.89;56.63
35806;BME280;21925;44.608;11.580;2022-07-29T08:46:14;101478.69;;;33.77;56.04
35806;BME280;21925;44.608;11.580;2022-07-29T08:48:41;101470.53;;;33.32;56.89
35806;BME280;21925;44.608;11.580;2022-07-29T08:51:07;101471.56;;;33.96;55.40
35806;BME280;21925;44.608;11.580;2022-07-29T08:53:33;101468.22;;;33.69;56.05
35806;BME280;21925;44.608;11.580;2022-07-29T08:55:59;101462.56;;;34.26;55.11
35806;BME280;21925;44.608;11.580;2022-07-29T08:58:26;101464.81;;;34.37;54.03
35806;BME280;21925;44.608;11.580;2022-07-29T09:00:54;101452.66;;;35.05;53.37
35806;BME280;21925;44.608;11.580;2022-07-29T09:03:23;101456.59;;;36.18;53.21
35806;BME280;21925;44.608;11.580;2022-07-29T09:05:49;101458.44;;;36.52;52.34
35806;BME280;21925;44.608;11.580;2022-07-29T09:08:16;101461.69;;;36.39;50.22
35806;BME280;21925;44.608;11.580;2022-07-29T09:10:42;101450.19;;;35.97;50.28
35806;BME280;21925;44.608;11.580;2022-07-29T09:13:08;101457.31;;;34.88;50.47
35806;BME280;21925;44.608;11.580;2022-07-29T09:15:34;101448.00;;;35.67;50.29
35806;BME280;21925;44.608;11.580;2022-07-29T09:18:00;101454.22;;;35.91;48.31
35806;BME280;21925;44.608;11.580;2022-07-29T09:20:26;101439.78;;;36.62;51.07
35806;BME280;21925;44.608;11.580;2022-07-29T09:23:12;101449.09;;;36.51;46.84
35806;BME280;21925;44.608;11.580;2022-07-29T09:25:40;101440.22;;;36.49;49.00
35806;BME280;21925;44.608;11.580;2022-07-29T09:28:13;101443.66;;;36.89;46.76
35806;BME280;21925;44.608;11.580;2022-07-29T09:30:52;101431.47;;;37.69;46.62
35806;BME280;21925;44.608;11.580;2022-07-29T09:33:19;101437.13;;;37.36;47.60
35806;BME280;21925;44.608;11.580;2022-07-29T09:35:45;101439.34;;;37.85;46.39
35806;BME280;21925;44.608;11.580;2022-07-29T09:38:12;101430.75;;;38.07;46.09
35806;BME280;21925;44.608;11.580;2022-07-29T09:40:38;101429.47;;;37.91;46.04
35806;BME280;21925;44.608;11.580;2022-07-29T09:43:14;101419.81;;;37.89;44.30
35806;BME280;21925;44.608;11.580;2022-07-29T09:45:39;101423.50;;;37.20;46.15
35806;BME280;21925;44.608;11.580;2022-07-29T09:48:23;101417.09;;;37.36;45.34
35806;BME280;21925;44.608;11.580;2022-07-29T09:50:50;101412.84;;;37.15;45.43
35806;BME280;21925;44.608;11.580;2022-07-29T09:53:32;101406.81;;;37.82;46.87
35806;BME280;21925;44.608;11.580;2022-07-29T09:55:59;101401.34;;;38.12;44.80
35806;BME280;21925;44.608;11.580;2022-07-29T09:58:24;101399.66;;;38.87;44.79
35806;BME280;21925;44.608;11.580;2022-07-29T10:00:51;101389.47;;;39.54;44.10
35806;BME280;21925;44.608;11.580;2022-07-29T10:03:18;101394.81;;;40.08;43.85
35806;BME280;21925;44.608;11.580;2022-07-29T10:05:45;101388.03;;;39.31;41.72
35806;BME280;21925;44.608;11.580;2022-07-29T10:08:12;101384.59;;;40.13;42.67
35806;BME280;21925;44.608;11.580;2022-07-29T10:10:40;101375.63;;;39.58;42.21
35806;BME280;21925;44.608;11.580;2022-07-29T10:13:10;101383.13;;;39.66;43.04
35806;BME280;21925;44.608;11.580;2022-07-29T10:15:39;101385.09;;;40.46;43.45
35806;BME280;21925;44.608;11.580;2022-07-29T10:18:10;101384.00;;;40.49;40.77
35806;BME280;21925;44.608;11.580;2022-07-29T10:20:36;101387.75;;;39.75;41.52
35806;BME280;21925;44.608;11.580;2022-07-29T10:23:02;101388.31;;;40.37;42.32
35806;BME280;21925;44.608;11.580;2022-07-29T10:25:28;101385.81;;;40.52;39.90
35806;BME280;21925;44.608;11.580;2022-07-29T10:27:54;101372.66;;;39.69;41.27
35806;BME280;21925;44.608;11.580;2022-07-29T10:30:22;101377.03;;;39.81;41.40
35806;BME280;21925;44.608;11.580;2022-07-29T10:33:01;101380.44;;;40.08;41.25
35806;BME280;21925;44.608;11.580;2022-07-29T10:38:45;101379.81;;;39.57;43.36
35806;BME280;21925;44.608;11.580;2022-07-29T10:44:03;101376.97;;;40.45;41.46
35806;BME280;21925;44.608;11.580;2022-07-29T10:46:38;101376.47;;;41.31;41.90
35806;BME280;21925;44.608;11.580;2022-07-29T10:49:17;101364.81;;;40.57;40.00
35806;BME280;21925;44.608;11.580;2022-07-29T10:54:16;101355.44;;;40.81;41.20
35806;BME280;21925;44.608;11.580;2022-07-29T10:56:42;101351.88;;;40.69;41.27
35806;BME280;21925;44.608;11.580;2022-07-29T11:01:48;101334.75;;;40.58;41.73
35806;BME280;21925;44.608;11.580;2022-07-29T11:07:11;101325.69;;;41.15;41.55
35806;BME280;21925;44.608;11.580;2022-07-29T11:09:38;101315.53;;;41.64;40.39
35806;BME280;21925;44.608;11.580;2022-07-29T11:15:03;101316.69;;;41.86;40.04
35806;BME280;21925;44.608;11.580;2022-07-29T11:17:28;101303.16;;;42.77;40.24
35806;BME280;21925;44.608;11.580;2022-07-29T11:22:57;101307.16;;;40.92;40.82
35806;BME280;21925;44.608;11.580;2022-07-29T11:25:24;101306.56;;;40.33;40.68
35806;BME280;21925;44.608;11.580;2022-07-29T11:27:51;101309.22;;;41.15;40.16
35806;BME280;21925;44.608;11.580;2022-07-29T11:30:18;101307.31;;;41.99;40.90
35806;BME280;21925;44.608;11.580;2022-07-29T11:32:44;101292.66;;;41.53;40.04
35806;BME280;21925;44.608;11.580;2022-07-29T11:37:36;101295.72;;;42.95;37.88
35806;BME280;21925;44.608;11.580;2022-07-29T11:47:27;101304.66;;;41.57;38.41
35806;BME280;21925;44.608;11.580;2022-07-29T11:49:57;101308.53;;;41.04;40.73
35806;BME280;21925;44.608;11.580;2022-07-29T11:52:32;101301.69;;;40.22;40.22
35806;BME280;21925;44.608;11.580;2022-07-29T11:55:01;101297.19;;;40.75;40.05
35806;BME280;21925;44.608;11.580;2022-07-29T11:57:28;101297.50;;;41.08;39.76
35806;BME280;21925;44.608;11.580;2022-07-29T11:59:55;101287.72;;;41.97;38.52
35806;BME280;21925;44.608;11.580;2022-07-29T12:02:20;101283.31;;;42.35;38.42
35806;BME280;21925;44.608;11.580;2022-07-29T12:04:54;101295.28;;;41.82;37.75
35806;BME280;21925;44.608;11.580;2022-07-29T12:07:30;101292.41;;;41.69;39.30
35806;BME280;21925;44.608;11.580;2022-07-29T12:09:56;101284.88;;;42.49;38.51
35806;BME280;21925;44.608;11.580;2022-07-29T12:12:22;101292.44;;;42.39;38.21
35806;BME280;21925;44.608;11.580;2022-07-29T12:14:48;101291.41;;;41.67;38.32
35806;BME280;21925;44.608;11.580;2022-07-29T12:17:31;101293.91;;;41.39;38.24
35806;BME280;21925;44.608;11.580;2022-07-29T12:19:59;101275.69;;;41.18;38.74
35806;BME280;21925;44.608;11.580;2022-07-29T12:22:32;101290.19;;;41.44;38.08
35806;BME280;21925;44.608;11.580;2022-07-29T12:25:07;101271.44;;;42.77;37.65
35806;BME280;21925;44.608;11.580;2022-07-29T12:27:34;101269.53;;;42.67;37.77
35806;BME280;21925;44.608;11.580;2022-07-29T12:30:03;101261.59;;;43.06;37.71
35806;BME280;21925;44.608;11.580;2022-07-29T12:32:42;101254.00;;;43.49;36.60
35806;BME280;21925;44.608;11.580;2022-07-29T12:35:12;101260.41;;;43.55;37.45
35806;BME280;21925;44.608;11.580;2022-07-29T12:37:40;101252.16;;;43.80;36.55
35806;BME280;21925;44.608;11.580;2022-07-29T12:40:07;101241.00;;;42.89;37.11
35806;BME280;21925;44.608;11.580;2022-07-29T12:42:34;101248.22;;;43.70;38.86
35806;BME280;21925;44.608;11.580;2022-07-29T12:45:00;101238.00;;;42.95;37.40
35806;BME280;21925;44.608;11.580;2022-07-29T12:47:27;101236.78;;;42.31;37.15
35806;BME280;21925;44.608;11.580;2022-07-29T12:50:09;101234.91;;;42.67;37.04
35806;BME280;21925;44.608;11.580;2022-07-29T12:52:35;101228.97;;;42.13;37.06
35806;BME280;21925;44.608;11.580;2022-07-29T12:55:01;101223.44;;;41.58;37.36
35806;BME280;21925;44.608;11.580;2022-07-29T12:57:27;101223.81;;;41.36;38.89
35806;BME280;21925;44.608;11.580;2022-07-29T13:00:06;101218.41;;;42.29;38.06
35806;BME280;21925;44.608;11.580;2022-07-29T13:02:34;101216.41;;;41.41;37.84
35806;BME280;21925;44.608;11.580;2022-07-29T13:05:01;101231.28;;;40.95;38.22
35806;BME280;21925;44.608;11.580;2022-07-29T13:07:29;101220.06;;;39.59;40.34
35806;BME280;21925;44.608;11.580;2022-07-29T13:12:35;101208.47;;;39.41;40.09
35806;BME280;21925;44.608;11.580;2022-07-29T13:15:13;101210.91;;;39.85;39.35
35806;BME280;21925;44.608;11.580;2022-07-29T13:17:41;101208.25;;;40.77;38.89
35806;BME280;21925;44.608;11.580;2022-07-29T13:20:09;101206.53;;;41.68;38.02
35806;BME280;21925;44.608;11.580;2022-07-29T13:22:38;101200.22;;;41.38;38.22
35806;BME280;21925;44.608;11.580;2022-07-29T13:25:04;101185.69;;;40.99;37.75